sensor_id;sensor_type;location;lat;lon;timestamp;P1;durP1;ratioP1;P2;durP2;ratioP2
84414;SDS011;74706;51.520;17.224;2024-01-11T00:09:38;134.93;;;46.63;;
84414;SDS011;74706;51.520;17.224;2024-01-11T00:18:04;133.13;;;47.90;;
84414;SDS011;74706;51.520;17.224;2024-01-11T00:26:28;142.98;;;52.50;;
84414;SDS011;74706;51.520;17.224;2024-01-11T00:43:16;149.05;;;52.38;;
84414;SDS011;74706;51.520;17.224;2024-01-11T00:51:40;141.30;;;50.53;;
84414;SDS011;74706;51.520;17.224;2024-01-11T01:00:06;146.02;;;53.00;;
84414;SDS011;74706;51.520;17.224;2024-01-11T01:08:29;152.60;;;51.55;;
84414;SDS011;74706;51.520;17.224;2024-01-11T01:16:50;139.50;;;52.15;;
84414;SDS011;74706;51.520;17.224;2024-01-11T01:33:43;141.93;;;52.35;;
84414;SDS011;74706;51.520;17.224;2024-01-11T01:42:14;127.25;;;45.33;;
84414;SDS011;74706;51.520;17.224;2024-01-11T01:50:42;128.07;;;44.90;;
84414;SDS011;74706;51.520;17.224;2024-01-11T01:59:07;137.13;;;54.33;;
84414;SDS011;74706;51.520;17.224;2024-01-11T02:07:31;137.85;;;55.92;;
84414;SDS011;74706;51.520;17.224;2024-01-11T02:24:16;134.82;;;54.17;;
84414;SDS011;74706;51.520;17.224;2024-01-11T02:32:41;130.13;;;47.85;;
84414;SDS011;74706;51.520;17.224;2024-01-11T02:41:09;138.98;;;48.63;;
84414;SDS011;74706;51.520;17.224;2024-01-11T02:58:06;121.07;;;50.47;;
84414;SDS011;74706;51.520;17.224;2024-01-11T03:06:29;144.55;;;55.47;;
84414;SDS011;74706;51.520;17.224;2024-01-11T03:14:55;129.20;;;46.15;;
84414;SDS011;74706;51.520;17.224;2024-01-11T03:23:20;107.63;;;39.92;;
84414;SDS011;74706;51.520;17.224;2024-01-11T03:31:41;130.25;;;43.55;;
84414;SDS011;74706;51.520;17.224;2024-01-11T03:40:05;110.70;;;42.53;;
84414;SDS011;74706;51.520;17.224;2024-01-11T03:48:26;114.57;;;44.35;;
84414;SDS011;74706;51.520;17.224;2024-01-11T03:56:48;126.82;;;43.30;;
84414;SDS011;74706;51.520;17.224;2024-01-11T04:05:13;124.88;;;46.63;;
84414;SDS011;74706;51.520;17.224;2024-01-11T04:13:38;108.85;;;41.13;;
84414;SDS011;74706;51.520;17.224;2024-01-11T04:22:04;129.90;;;49.30;;
84414;SDS011;74706;51.520;17.224;2024-01-11T04:30:31;103.70;;;46.42;;
84414;SDS011;74706;51.520;17.224;2024-01-11T04:38:53;135.05;;;48.30;;
84414;SDS011;74706;51.520;17.224;2024-01-11T04:47:15;128.25;;;47.53;;
84414;SDS011;74706;51.520;17.224;2024-01-11T04:55:37;124.28;;;47.47;;
84414;SDS011;74706;51.520;17.224;2024-01-11T05:12:24;135.55;;;52.08;;
84414;SDS011;74706;51.520;17.224;2024-01-11T05:29:11;111.25;;;43.20;;
84414;SDS011;74706;51.520;17.224;2024-01-11T05:37:32;129.23;;;44.03;;
84414;SDS011;74706;51.520;17.224;2024-01-11T05:54:23;121.72;;;44.83;;
84414;SDS011;74706;51.520;17.224;2024-01-11T06:02:46;119.78;;;41.10;;
84414;SDS011;74706;51.520;17.224;2024-01-11T06:11:07;134.48;;;47.72;;
84414;SDS011;74706;51.520;17.224;2024-01-11T06:27:52;94.72;;;34.45;;
84414;SDS011;74706;51.520;17.224;2024-01-11T06:36:14;114.38;;;42.38;;
84414;SDS011;74706;51.520;17.224;2024-01-11T06:44:38;110.57;;;41.08;;
84414;SDS011;74706;51.520;17.224;2024-01-11T06:53:00;87.07;;;31.10;;
84414;SDS011;74706;51.520;17.224;2024-01-11T07:01:22;68.88;;;26.77;;
84414;SDS011;74706;51.520;17.224;2024-01-11T07:09:43;76.28;;;30.30;;
84414;SDS011;74706;51.520;17.224;2024-01-11T07:18:06;58.03;;;23.90;;
84414;SDS011;74706;51.520;17.224;2024-01-11T07:26:30;66.00;;;28.83;;
84414;SDS011;74706;51.520;17.224;2024-01-11T07:34:53;59.10;;;23.90;;
84414;SDS011;74706;51.520;17.224;2024-01-11T07:43:18;64.45;;;24.23;;
84414;SDS011;74706;51.520;17.224;2024-01-11T07:51:42;59.42;;;22.48;;
84414;SDS011;74706;51.520;17.224;2024-01-11T08:00:07;57.40;;;24.40;;
84414;SDS011;74706;51.520;17.224;2024-01-11T08:08:32;56.40;;;21.45;;
84414;SDS011;74706;51.520;17.224;2024-01-11T08:17:00;56.20;;;21.33;;
84414;SDS011;74706;51.520;17.224;2024-01-11T08:25:22;52.88;;;21.50;;
84414;SDS011;74706;51.520;17.224;2024-01-11T08:33:43;47.75;;;18.80;;
84414;SDS011;74706;51.520;17.224;2024-01-11T08:42:04;54.92;;;20.35;;
84414;SDS011;74706;51.520;17.224;2024-01-11T08:50:29;51.28;;;21.98;;
84414;SDS011;74706;51.520;17.224;2024-01-11T08:59:00;52.17;;;20.83;;
84414;SDS011;74706;51.520;17.224;2024-01-11T09:07:24;48.28;;;18.25;;
84414;SDS011;74706;51.520;17.224;2024-01-11T09:15:48;51.30;;;19.30;;
84414;SDS011;74706;51.520;17.224;2024-01-11T09:24:11;40.35;;;16.35;;
84414;SDS011;74706;51.520;17.224;2024-01-11T09:32:33;48.17;;;19.13;;
84414;SDS011;74706;51.520;17.224;2024-01-11T09:49:35;42.78;;;17.75;;
84414;SDS011;74706;51.520;17.224;2024-01-11T09:58:02;45.28;;;17.52;;
84414;SDS011;74706;51.520;17.224;2024-01-11T10:06:26;51.25;;;19.85;;
84414;SDS011;74706;51.520;17.224;2024-01-11T10:14:49;49.42;;;18.88;;
84414;SDS011;74706;51.520;17.224;2024-01-11T10:23:15;48.35;;;18.10;;
84414;SDS011;74706;51.520;17.224;2024-01-11T10:31:39;39.75;;;17.42;;
84414;SDS011;74706;51.520;17.224;2024-01-11T10:40:03;44.33;;;18.27;;
84414;SDS011;74706;51.520;17.224;2024-01-11T10:48:31;42.22;;;17.85;;
84414;SDS011;74706;51.520;17.224;2024-01-11T10:56:55;44.65;;;18.27;;
84414;SDS011;74706;51.520;17.224;2024-01-11T11:05:21;34.72;;;14.20;;
84414;SDS011;74706;51.520;17.224;2024-01-11T11:13:46;34.55;;;14.02;;
84414;SDS011;74706;51.520;17.224;2024-01-11T11:22:09;32.03;;;13.07;;
84414;SDS011;74706;51.520;17.224;2024-01-11T11:39:04;26.90;;;11.07;;
84414;SDS011;74706;51.520;17.224;2024-01-11T11:47:25;29.83;;;12.60;;
84414;SDS011;74706;51.520;17.224;2024-01-11T11:55:57;32.42;;;12.95;;
84414;SDS011;74706;51.520;17.224;2024-01-11T12:04:20;27.60;;;12.52;;
84414;SDS011;74706;51.520;17.224;2024-01-11T12:12:42;34.15;;;13.65;;
84414;SDS011;74706;51.520;17.224;2024-01-11T12:21:04;28.73;;;11.63;;
84414;SDS011;74706;51.520;17.224;2024-01-11T12:29:28;28.27;;;12.38;;
84414;SDS011;74706;51.520;17.224;2024-01-11T12:37:55;25.05;;;11.27;;
84414;SDS011;74706;51.520;17.224;2024-01-11T12:46:26;28.20;;;12.02;;
84414;SDS011;74706;51.520;17.224;2024-01-11T12:54:53;25.13;;;10.43;;
84414;SDS011;74706;51.520;17.224;2024-01-11T13:03:20;31.88;;;11.93;;
84414;SDS011;74706;51.520;17.224;2024-01-11T13:11:42;20.27;;;8.70;;
84414;SDS011;74706;51.520;17.224;2024-01-11T13:20:09;30.23;;;11.65;;
84414;SDS011;74706;51.520;17.224;2024-01-11T13:28:33;34.47;;;12.57;;
84414;SDS011;74706;51.520;17.224;2024-01-11T13:36:54;32.97;;;12.45;;
84414;SDS011;74706;51.520;17.224;2024-01-11T14:02:21;25.77;;;10.40;;
84414;SDS011;74706;51.520;17.224;2024-01-11T14:10:48;37.75;;;14.60;;
84414;SDS011;74706;51.520;17.224;2024-01-11T14:19:13;38.28;;;15.10;;
84414;SDS011;74706;51.520;17.224;2024-01-11T14:27:44;43.30;;;17.42;;
84414;SDS011;74706;51.520;17.224;2024-01-11T14:36:10;39.30;;;14.55;;
84414;SDS011;74706;51.520;17.224;2024-01-11T14:44:35;39.45;;;15.80;;
84414;SDS011;74706;51.520;17.224;2024-01-11T14:53:01;44.13;;;16.05;;
84414;SDS011;74706;51.520;17.224;2024-01-11T15:01:28;41.70;;;16.10;;
84414;SDS011;74706;51.520;17.224;2024-01-11T15:09:50;40.83;;;16.80;;
84414;SDS011;74706;51.520;17.224;2024-01-11T15:18:13;39.05;;;16.02;;
84414;SDS011;74706;51.520;17.224;2024-01-11T15:26:34;29.15;;;10.25;;
84414;SDS011;74706;51.520;17.224;2024-01-11T15:34:58;32.70;;;14.18;;
84414;SDS011;74706;51.520;17.224;2024-01-11T15:43:21;33.63;;;13.52;;
84414;SDS011;74706;51.520;17.224;2024-01-11T15:51:44;35.22;;;13.43;;
84414;SDS011;74706;51.520;17.224;2024-01-11T16:00:07;29.67;;;11.38;;
84414;SDS011;74706;51.520;17.224;2024-01-11T16:08:31;33.92;;;12.18;;
84414;SDS011;74706;51.520;17.224;2024-01-11T16:16:53;28.35;;;11.32;;
84414;SDS011;74706;51.520;17.224;2024-01-11T16:25:14;30.20;;;12.00;;
84414;SDS011;74706;51.520;17.224;2024-01-11T16:33:37;27.33;;;10.65;;
84414;SDS011;74706;51.520;17.224;2024-01-11T16:41:59;31.50;;;11.60;;
84414;SDS011;74706;51.520;17.224;2024-01-11T16:50:24;25.48;;;10.02;;
84414;SDS011;74706;51.520;17.224;2024-01-11T16:58:46;26.52;;;10.32;;
84414;SDS011;74706;51.520;17.224;2024-01-11T17:07:10;29.38;;;10.63;;
84414;SDS011;74706;51.520;17.224;2024-01-11T17:15:39;25.73;;;11.02;;
84414;SDS011;74706;51.520;17.224;2024-01-11T17:24:05;26.98;;;10.80;;
84414;SDS011;74706;51.520;17.224;2024-01-11T17:32:27;25.45;;;9.75;;
84414;SDS011;74706;51.520;17.224;2024-01-11T17:40:50;24.85;;;9.07;;
84414;SDS011;74706;51.520;17.224;2024-01-11T17:49:11;28.63;;;10.82;;
84414;SDS011;74706;51.520;17.224;2024-01-11T17:57:37;26.08;;;9.57;;
84414;SDS011;74706;51.520;17.224;2024-01-11T18:05:59;25.23;;;11.73;;
84414;SDS011;74706;51.520;17.224;2024-01-11T18:14:26;23.75;;;9.38;;
84414;SDS011;74706;51.520;17.224;2024-01-11T18:22:48;27.55;;;11.73;;
84414;SDS011;74706;51.520;17.224;2024-01-11T18:31:14;25.42;;;10.35;;
84414;SDS011;74706;51.520;17.224;2024-01-11T18:39:40;33.20;;;12.13;;
84414;SDS011;74706;51.520;17.224;2024-01-11T18:48:04;31.25;;;12.48;;
84414;SDS011;74706;51.520;17.224;2024-01-11T18:56:34;29.70;;;12.35;;
84414;SDS011;74706;51.520;17.224;2024-01-11T19:13:17;31.05;;;12.75;;
84414;SDS011;74706;51.520;17.224;2024-01-11T19:21:39;32.00;;;13.07;;
84414;SDS011;74706;51.520;17.224;2024-01-11T19:30:00;30.08;;;12.48;;
84414;SDS011;74706;51.520;17.224;2024-01-11T19:38:30;35.80;;;14.50;;
84414;SDS011;74706;51.520;17.224;2024-01-11T19:46:55;35.85;;;13.55;;
84414;SDS011;74706;51.520;17.224;2024-01-11T19:55:16;29.83;;;12.25;;
84414;SDS011;74706;51.520;17.224;2024-01-11T20:03:38;31.38;;;12.75;;
84414;SDS011;74706;51.520;17.224;2024-01-11T20:12:05;29.25;;;13.38;;
84414;SDS011;74706;51.520;17.224;2024-01-11T20:20:26;26.27;;;11.63;;
84414;SDS011;74706;51.520;17.224;2024-01-11T20:28:50;24.45;;;11.38;;
84414;SDS011;74706;51.520;17.224;2024-01-11T20:37:11;26.40;;;11.07;;
84414;SDS011;74706;51.520;17.224;2024-01-11T20:45:33;23.25;;;10.60;;
84414;SDS011;74706;51.520;17.224;2024-01-11T20:53:59;24.48;;;11.10;;
84414;SDS011;74706;51.520;17.224;2024-01-11T21:02:24;29.00;;;11.80;;
84414;SDS011;74706;51.520;17.224;2024-01-11T21:10:51;24.25;;;11.07;;
84414;SDS011;74706;51.520;17.224;2024-01-11T21:19:13;26.08;;;11.20;;
84414;SDS011;74706;51.520;17.224;2024-01-11T21:27:35;25.10;;;10.27;;
84414;SDS011;74706;51.520;17.224;2024-01-11T21:35:56;28.05;;;11.45;;
84414;SDS011;74706;51.520;17.224;2024-01-11T21:52:48;25.63;;;11.38;;
84414;SDS011;74706;51.520;17.224;2024-01-11T22:01:14;24.75;;;11.32;;
84414;SDS011;74706;51.520;17.224;2024-01-11T22:09:36;25.45;;;11.50;;
84414;SDS011;74706;51.520;17.224;2024-01-11T22:18:00;25.92;;;11.77;;
84414;SDS011;74706;51.520;17.224;2024-01-11T22:26:22;30.67;;;12.80;;
84414;SDS011;74706;51.520;17.224;2024-01-11T22:34:53;32.67;;;12.85;;
84414;SDS011;74706;51.520;17.224;2024-01-11T22:43:21;34.33;;;14.10;;
84414;SDS011;74706;51.520;17.224;2024-01-11T22:51:46;32.38;;;13.40;;
84414;SDS011;74706;51.520;17.224;2024-01-11T23:00:08;31.13;;;12.75;;
84414;SDS011;74706;51.520;17.224;2024-01-11T23:08:46;29.88;;;13.30;;
84414;SDS011;74706;51.520;17.224;2024-01-11T23:17:08;36.80;;;14.55;;
84414;SDS011;74706;51.520;17.224;2024-01-11T23:25:31;33.38;;;13.68;;
84414;SDS011;74706;51.520;17.224;2024-01-11T23:42:26;33.20;;;14.85;;
84414;SDS011;74706;51.520;17.224;2024-01-11T23:50:50;35.95;;;14.65;;
84414;SDS011;74706;51.520;17.224;2024-01-11T23:59:13;39.60;;;14.52;;
